Stations météo

Publicité
Puerto Plata, République Dominicaine (78457): Température de l'air & dewpoint: 17.01.2017 00:00:00 - 23.01.2017 00:00:00 (AST)Puerto Plata, République Dominicaine (78457): Vitesse du vent: 17.01.2017 00:00:00 - 23.01.2017 00:00:00 (AST)Puerto Plata, République Dominicaine (78457): Direction du vent: 17.01.2017 00:00:00 - 23.01.2017 00:00:00 (AST)Puerto Plata, République Dominicaine (78457): visibility: 17.01.2017 00:00:00 - 23.01.2017 00:00:00 (AST)
Date & Time tt [°C] td [°C] ff [km/h] ff [knt] dd vv [km]
23.01.2017 00:00:00 - - - - - -
22.01.2017 23:00:00 20,0 20,0 0 0 N 10
22.01.2017 22:00:00 - - - - - -
22.01.2017 21:00:00 - - - - - -
22.01.2017 20:00:00 23,0 21,0 0 0 N 10
22.01.2017 19:00:00 24,0 22,0 0 0 N 10
22.01.2017 18:00:00 26,0 21,0 18 10 E 10
22.01.2017 17:00:00 27,0 22,0 18 10 E 10
22.01.2017 16:00:00 27,0 21,0 18 10 ENE 10
22.01.2017 15:00:00 27,0 21,0 28 15 E 10
22.01.2017 14:00:00 28,0 22,0 18 10 ESE 10
22.01.2017 13:00:00 27,0 20,0 9 5 SSE 10
22.01.2017 12:00:00 26,0 19,0 9 5 E 10
22.01.2017 11:00:00 25,0 21,0 9 5 ESE 10
22.01.2017 10:00:00 24,0 20,0 9 5 ESE 10
22.01.2017 09:00:00 21,0 19,0 0 0 N 10
22.01.2017 08:00:00 19,0 18,0 0 0 N 10
22.01.2017 07:00:00 19,0 18,0 0 0 N 10
22.01.2017 06:00:00 - - - - - -
22.01.2017 05:00:00 18,0 18,0 0 0 N 10
22.01.2017 04:00:00 - - - - - -
22.01.2017 03:00:00 - - - - - -
22.01.2017 02:00:00 19,0 18,0 0 0 N 10
22.01.2017 01:00:00 - - - - - -
22.01.2017 00:00:00 - - - - - -
21.01.2017 23:00:00 20,0 19,0 0 0 N 10
21.01.2017 22:00:00 - - - - - -
21.01.2017 21:00:00 - - - - - -
21.01.2017 20:00:00 21,0 20,0 0 0 N 10
21.01.2017 19:00:00 22,0 21,0 0 0 N 10
21.01.2017 18:00:00 25,0 20,0 9 5 ENE 10
21.01.2017 17:00:00 25,0 21,0 9 5 N 10
21.01.2017 16:00:00 26,0 20,0 9 5 N 10
21.01.2017 15:00:00 27,0 19,0 9 5 E 10
21.01.2017 14:00:00 27,0 20,0 0 0 N 10
21.01.2017 13:00:00 27,0 19,0 9 5 N 10
21.01.2017 12:00:00 27,0 20,0 9 5 NNW 10
21.01.2017 11:00:00 25,0 20,0 9 5 W 10
21.01.2017 10:00:00 24,0 20,0 9 5 SSW 10
21.01.2017 09:00:00 20,0 18,0 9 5 SSW 10
21.01.2017 08:00:00 17,0 17,0 0 0 N 10
21.01.2017 07:00:00 17,0 16,0 0 0 N 10
21.01.2017 06:00:00 - - - - - -
21.01.2017 05:00:00 18,0 18,0 0 0 N 10
21.01.2017 04:00:00 - - - - - -
21.01.2017 03:00:00 - - - - - -
21.01.2017 02:00:00 19,0 18,0 0 0 N 10
21.01.2017 01:00:00 - - - - - -
21.01.2017 00:00:00 - - - - - -
20.01.2017 23:00:00 20,0 19,0 0 0 N 10
20.01.2017 22:00:00 - - - - - -
20.01.2017 21:00:00 - - - - - -
20.01.2017 20:00:00 21,0 20,0 0 0 N 10
20.01.2017 19:00:00 23,0 20,0 9 5 ENE 10
20.01.2017 18:00:00 25,0 19,0 0 0 N 10
20.01.2017 17:00:00 26,0 20,0 9 5 NNE 10
20.01.2017 16:00:00 26,0 20,0 9 5 NNE 10
20.01.2017 15:00:00 28,0 20,0 18 10 ENE 10
20.01.2017 14:00:00 27,0 21,0 18 10 ENE 10
20.01.2017 13:00:00 27,0 21,0 11 6 N 10
20.01.2017 12:00:00 26,0 21,0 9 5 N 10
20.01.2017 11:00:00 26,0 21,0 0 0 N 10
20.01.2017 10:00:00 24,0 20,0 9 5 S 10
20.01.2017 09:00:00 20,0 18,0 9 5 S 10
20.01.2017 08:00:00 17,0 17,0 0 0 N 10
20.01.2017 07:00:00 17,0 17,0 0 0 N 10
20.01.2017 06:00:00 - - - - - -
20.01.2017 05:00:00 18,0 18,0 0 0 N 10
20.01.2017 04:00:00 - - - - - -
20.01.2017 03:00:00 - - - - - -
20.01.2017 02:00:00 19,0 18,0 0 0 N 10
20.01.2017 01:00:00 - - - - - -
20.01.2017 00:00:00 - - - - - -
19.01.2017 23:00:00 19,0 18,0 18 10 S 10
19.01.2017 22:00:00 - - - - - -
19.01.2017 21:00:00 - - - - - -
19.01.2017 20:00:00 20,0 19,0 0 0 N 10
19.01.2017 19:00:00 22,0 20,0 0 0 N 10
19.01.2017 18:00:00 25,0 20,0 0 0 N 10
19.01.2017 17:00:00 26,0 19,0 0 0 N 10
19.01.2017 16:00:00 26,0 18,0 15 8 NNE 10
19.01.2017 15:00:00 27,0 18,0 15 8 NNE 10
19.01.2017 14:00:00 27,0 18,0 9 5 NNE 10
19.01.2017 13:00:00 27,0 20,0 9 5 NNE 10
19.01.2017 12:00:00 27,0 19,0 9 5 NNE 10
19.01.2017 11:00:00 26,0 19,0 0 0 N 10
19.01.2017 10:00:00 24,0 18,0 0 0 N 10
19.01.2017 09:00:00 21,0 19,0 0 0 N 10
19.01.2017 08:00:00 21,0 20,0 0 0 N 10
19.01.2017 07:00:00 21,0 20,0 0 0 N 10
19.01.2017 06:00:00 - - - - - -
19.01.2017 05:00:00 21,0 21,0 0 0 N 10
19.01.2017 04:00:00 - - - - - -
19.01.2017 03:00:00 - - - - - -
19.01.2017 02:00:00 22,0 21,0 0 0 N 10
19.01.2017 01:00:00 - - - - - -
19.01.2017 00:00:00 - - - - - -
18.01.2017 23:00:00 22,0 21,0 0 0 N 10
18.01.2017 22:00:00 - - - - - -
18.01.2017 21:00:00 - - - - - -
18.01.2017 20:00:00 23,0 21,0 0 0 N 10
18.01.2017 19:00:00 24,0 21,0 0 0 N 10
18.01.2017 18:00:00 26,0 20,0 9 5 ENE 10
18.01.2017 17:00:00 27,0 19,0 9 5 ENE 10
18.01.2017 16:00:00 27,0 19,0 9 5 ENE 10
18.01.2017 15:00:00 28,0 19,0 18 10 E 10
18.01.2017 14:00:00 27,0 20,0 9 5 E 10
18.01.2017 13:00:00 27,0 21,0 9 5 E 10
18.01.2017 12:00:00 26,0 20,0 9 5 E 10
18.01.2017 11:00:00 26,0 20,0 0 0 N 10
18.01.2017 10:00:00 24,0 22,0 0 0 N 10
18.01.2017 09:00:00 20,0 19,0 0 0 N 10
18.01.2017 08:00:00 19,0 18,0 0 0 N 10
18.01.2017 07:00:00 21,0 20,0 0 0 N 10
18.01.2017 06:00:00 - - - - - -
18.01.2017 05:00:00 21,0 20,0 0 0 N 10
18.01.2017 04:00:00 - - - - - -
18.01.2017 03:00:00 - - - - - -
18.01.2017 02:00:00 21,0 20,0 0 0 N 10
18.01.2017 01:00:00 - - - - - -
18.01.2017 00:00:00 - - - - - -
17.01.2017 23:00:00 22,0 21,0 0 0 N 10
17.01.2017 22:00:00 - - - - - -
17.01.2017 21:00:00 - - - - - -
17.01.2017 20:00:00 22,0 21,0 0 0 N 10
17.01.2017 19:00:00 23,0 22,0 0 0 N 8
17.01.2017 18:00:00 24,0 22,0 18 10 E 6
17.01.2017 17:00:00 25,0 22,0 18 10 E 10
17.01.2017 16:00:00 24,0 22,0 11 6 E 8
17.01.2017 15:00:00 25,0 21,0 11 6 ENE 10
17.01.2017 14:00:00 25,0 21,0 11 6 ENE 8
17.01.2017 13:00:00 27,0 23,0 18 10 E 10
17.01.2017 12:00:00 27,0 22,0 15 8 ESE 10
17.01.2017 11:00:00 25,0 22,0 11 6 ESE 10
17.01.2017 10:00:00 23,0 22,0 15 8 E 10
17.01.2017 09:00:00 - - - - - -
17.01.2017 08:00:00 21,0 21,0 0 0 N 10
17.01.2017 07:00:00 20,0 20,0 0 0 N 10
17.01.2017 06:00:00 - - - - - -
17.01.2017 05:00:00 20,0 20,0 0 0 N 10
17.01.2017 04:00:00 - - - - - -
17.01.2017 03:00:00 - - - - - -
17.01.2017 02:00:00 20,0 20,0 0 0 N 10
17.01.2017 01:00:00 - - - - - -
17.01.2017 00:00:00 - - - - - -

tt = Température de l'air
td = dewpoint
ff = Vitesse du vent
dd = Direction du vent
vv = visibility

stations d'obs. à proximité